sensor_id;sensor_type;location;lat;lon;timestamp;pressure;altitude;pressure_sealevel;temperature;humidity
14089;BME280;7120;52.890;6.040;2023-08-06T00:00:38;100592.72;;;14.74;100.00
14089;BME280;7120;52.890;6.040;2023-08-06T00:03:04;100596.28;;;14.75;100.00
14089;BME280;7120;52.890;6.040;2023-08-06T00:05:29;100601.44;;;14.76;100.00
14089;BME280;7120;52.890;6.040;2023-08-06T00:07:54;100605.16;;;14.80;100.00
14089;BME280;7120;52.890;6.040;2023-08-06T00:10:20;100587.84;;;14.80;100.00
14089;BME280;7120;52.890;6.040;2023-08-06T00:12:45;100591.50;;;14.84;100.00
14089;BME280;7120;52.890;6.040;2023-08-06T00:15:11;100594.72;;;14.86;100.00
14089;BME280;7120;52.890;6.040;2023-08-06T00:17:36;100593.59;;;14.87;100.00
14089;BME280;7120;52.890;6.040;2023-08-06T00:20:03;100588.16;;;14.78;100.00
14089;BME280;7120;52.890;6.040;2023-08-06T00:22:36;100587.88;;;14.92;100.00
14089;BME280;7120;52.890;6.040;2023-08-06T00:25:02;100588.41;;;14.86;100.00
14089;BME280;7120;52.890;6.040;2023-08-06T00:27:28;100567.72;;;14.79;100.00
14089;BME280;7120;52.890;6.040;2023-08-06T00:29:54;100582.84;;;14.94;100.00
14089;BME280;7120;52.890;6.040;2023-08-06T00:32:19;100579.75;;;14.96;100.00
14089;BME280;7120;52.890;6.040;2023-08-06T00:34:45;100585.34;;;14.87;100.00
14089;BME280;7120;52.890;6.040;2023-08-06T00:37:10;100588.56;;;14.89;100.00
14089;BME280;7120;52.890;6.040;2023-08-06T00:39:36;100576.84;;;14.92;100.00
14089;BME280;7120;52.890;6.040;2023-08-06T00:42:01;100585.47;;;14.91;100.00
14089;BME280;7120;52.890;6.040;2023-08-06T00:44:27;100584.56;;;14.99;100.00
14089;BME280;7120;52.890;6.040;2023-08-06T00:46:52;100573.75;;;14.94;100.00
14089;BME280;7120;52.890;6.040;2023-08-06T00:49:18;100571.75;;;15.03;100.00
14089;BME280;7120;52.890;6.040;2023-08-06T00:51:43;100572.03;;;14.89;100.00
14089;BME280;7120;52.890;6.040;2023-08-06T00:54:09;100569.75;;;14.91;100.00
14089;BME280;7120;52.890;6.040;2023-08-06T00:56:36;100570.19;;;14.93;100.00
14089;BME280;7120;52.890;6.040;2023-08-06T00:59:03;100575.16;;;15.00;100.00
14089;BME280;7120;52.890;6.040;2023-08-06T01:01:29;100580.34;;;15.01;100.00
14089;BME280;7120;52.890;6.040;2023-08-06T01:03:56;100576.31;;;14.99;100.00
14089;BME280;7120;52.890;6.040;2023-08-06T01:09:01;100576.06;;;14.92;100.00
14089;BME280;7120;52.890;6.040;2023-08-06T01:11:33;100573.69;;;15.02;100.00
14089;BME280;7120;52.890;6.040;2023-08-06T01:14:11;100576.31;;;14.99;100.00
14089;BME280;7120;52.890;6.040;2023-08-06T01:16:41;100564.56;;;14.90;100.00
14089;BME280;7120;52.890;6.040;2023-08-06T01:19:19;100565.50;;;14.94;100.00
14089;BME280;7120;52.890;6.040;2023-08-06T01:21:44;100561.13;;;14.93;100.00
14089;BME280;7120;52.890;6.040;2023-08-06T01:24:10;100568.25;;;14.94;100.00
14089;BME280;7120;52.890;6.040;2023-08-06T01:26:41;100565.44;;;15.02;100.00
14089;BME280;7120;52.890;6.040;2023-08-06T01:29:15;100564.03;;;14.96;100.00
14089;BME280;7120;52.890;6.040;2023-08-06T01:31:43;100567.25;;;14.98;100.00
14089;BME280;7120;52.890;6.040;2023-08-06T01:34:15;100567.59;;;14.97;100.00
14089;BME280;7120;52.890;6.040;2023-08-06T01:36:42;100561.06;;;15.01;100.00
14089;BME280;7120;52.890;6.040;2023-08-06T01:39:08;100559.44;;;15.00;100.00
14089;BME280;7120;52.890;6.040;2023-08-06T01:41:33;100559.69;;;14.95;100.00
14089;BME280;7120;52.890;6.040;2023-08-06T01:43:58;100551.53;;;14.99;100.00
14089;BME280;7120;52.890;6.040;2023-08-06T01:46:24;100550.06;;;15.01;100.00
14089;BME280;7120;52.890;6.040;2023-08-06T01:48:49;100548.69;;;15.07;100.00
14089;BME280;7120;52.890;6.040;2023-08-06T01:51:15;100540.41;;;14.95;100.00
14089;BME280;7120;52.890;6.040;2023-08-06T01:53:40;100548.56;;;15.04;100.00
14089;BME280;7120;52.890;6.040;2023-08-06T01:56:06;100549.72;;;15.03;100.00
14089;BME280;7120;52.890;6.040;2023-08-06T01:58:31;100552.41;;;14.91;100.00
14089;BME280;7120;52.890;6.040;2023-08-06T02:00:56;100546.22;;;14.94;100.00
14089;BME280;7120;52.890;6.040;2023-08-06T02:03:22;100555.78;;;14.96;100.00
14089;BME280;7120;52.890;6.040;2023-08-06T02:05:47;100555.78;;;14.96;100.00
14089;BME280;7120;52.890;6.040;2023-08-06T02:08:12;100541.31;;;14.99;100.00
14089;BME280;7120;52.890;6.040;2023-08-06T02:10:38;100545.47;;;15.05;100.00
14089;BME280;7120;52.890;6.040;2023-08-06T02:13:03;100535.91;;;14.91;100.00
14089;BME280;7120;52.890;6.040;2023-08-06T02:15:29;100547.06;;;14.94;100.00
14089;BME280;7120;52.890;6.040;2023-08-06T02:17:54;100551.41;;;14.95;100.00
14089;BME280;7120;52.890;6.040;2023-08-06T02:20:19;100551.63;;;14.90;100.00
14089;BME280;7120;52.890;6.040;2023-08-06T02:22:45;100545.91;;;15.07;100.00
14089;BME280;7120;52.890;6.040;2023-08-06T02:25:10;100551.19;;;15.00;100.00
14089;BME280;7120;52.890;6.040;2023-08-06T02:27:37;100541.34;;;15.11;100.00
14089;BME280;7120;52.890;6.040;2023-08-06T02:30:03;100533.91;;;15.12;100.00
14089;BME280;7120;52.890;6.040;2023-08-06T02:32:29;100538.22;;;15.01;100.00
14089;BME280;7120;52.890;6.040;2023-08-06T02:34:56;100526.88;;;15.02;100.00
14089;BME280;7120;52.890;6.040;2023-08-06T02:37:22;100527.34;;;15.04;100.00
14089;BME280;7120;52.890;6.040;2023-08-06T02:39:47;100528.22;;;14.96;100.00
14089;BME280;7120;52.890;6.040;2023-08-06T02:42:12;100530.19;;;14.96;100.00
14089;BME280;7120;52.890;6.040;2023-08-06T02:44:38;100521.44;;;14.94;100.00
14089;BME280;7120;52.890;6.040;2023-08-06T02:47:03;100531.44;;;14.98;100.00
14089;BME280;7120;52.890;6.040;2023-08-06T02:49:29;100534.78;;;15.04;100.00
14089;BME280;7120;52.890;6.040;2023-08-06T02:51:54;100526.88;;;15.02;100.00
14089;BME280;7120;52.890;6.040;2023-08-06T02:54:19;100526.28;;;14.97;100.00
14089;BME280;7120;52.890;6.040;2023-08-06T02:56:45;100515.88;;;15.02;100.00
14089;BME280;7120;52.890;6.040;2023-08-06T02:59:12;100519.72;;;14.89;100.00
14089;BME280;7120;52.890;6.040;2023-08-06T03:01:37;100509.63;;;14.93;100.00
14089;BME280;7120;52.890;6.040;2023-08-06T03:04:03;100519.91;;;14.84;100.00
14089;BME280;7120;52.890;6.040;2023-08-06T03:06:28;100510.16;;;14.87;100.00
14089;BME280;7120;52.890;6.040;2023-08-06T03:08:54;100504.59;;;14.95;100.00
14089;BME280;7120;52.890;6.040;2023-08-06T03:11:19;100502.06;;;14.90;100.00
14089;BME280;7120;52.890;6.040;2023-08-06T03:13:45;100489.44;;;14.89;100.00
14089;BME280;7120;52.890;6.040;2023-08-06T03:16:10;100501.25;;;14.90;100.00
14089;BME280;7120;52.890;6.040;2023-08-06T03:18:36;100494.34;;;14.83;100.00
14089;BME280;7120;52.890;6.040;2023-08-06T03:21:01;100498.69;;;14.84;100.00
14089;BME280;7120;52.890;6.040;2023-08-06T03:23:26;100498.03;;;14.88;100.00
14089;BME280;7120;52.890;6.040;2023-08-06T03:25:52;100507.56;;;14.90;100.00
14089;BME280;7120;52.890;6.040;2023-08-06T03:28:17;100501.59;;;14.88;100.00
14089;BME280;7120;52.890;6.040;2023-08-06T03:30:43;100516.28;;;14.92;100.00
14089;BME280;7120;52.890;6.040;2023-08-06T03:33:08;100497.81;;;14.93;100.00
14089;BME280;7120;52.890;6.040;2023-08-06T03:35:34;100499.53;;;14.97;100.00
14089;BME280;7120;52.890;6.040;2023-08-06T03:37:59;100502.75;;;14.87;100.00
14089;BME280;7120;52.890;6.040;2023-08-06T03:40:24;100501.72;;;14.92;100.00
14089;BME280;7120;52.890;6.040;2023-08-06T03:42:50;100504.91;;;14.94;100.00
14089;BME280;7120;52.890;6.040;2023-08-06T03:45:15;100501.09;;;14.86;100.00
14089;BME280;7120;52.890;6.040;2023-08-06T03:47:41;100498.84;;;14.88;100.00
14089;BME280;7120;52.890;6.040;2023-08-06T03:50:06;100504.13;;;14.93;100.00
14089;BME280;7120;52.890;6.040;2023-08-06T03:52:32;100507.66;;;14.94;100.00
14089;BME280;7120;52.890;6.040;2023-08-06T03:54:57;100503.00;;;14.94;100.00
14089;BME280;7120;52.890;6.040;2023-08-06T03:57:23;100501.59;;;14.88;100.00
14089;BME280;7120;52.890;6.040;2023-08-06T03:59:48;100498.84;;;14.88;100.00
14089;BME280;7120;52.890;6.040;2023-08-06T04:02:13;100496.88;;;14.89;100.00
14089;BME280;7120;52.890;6.040;2023-08-06T04:04:39;100495.75;;;14.90;100.00
14089;BME280;7120;52.890;6.040;2023-08-06T04:07:04;100506.41;;;14.91;100.00
14089;BME280;7120;52.890;6.040;2023-08-06T04:09:30;100504.91;;;14.94;100.00
14089;BME280;7120;52.890;6.040;2023-08-06T04:11:55;100502.31;;;14.97;100.00
14089;BME280;7120;52.890;6.040;2023-08-06T04:14:21;100510.78;;;14.92;100.00
14089;BME280;7120;52.890;6.040;2023-08-06T04:16:46;100511.25;;;14.94;100.00
14089;BME280;7120;52.890;6.040;2023-08-06T04:19:12;100501.78;;;14.83;100.00
14089;BME280;7120;52.890;6.040;2023-08-06T04:21:37;100510.84;;;14.83;100.00
14089;BME280;7120;52.890;6.040;2023-08-06T04:24:03;100510.41;;;14.94;100.00
14089;BME280;7120;52.890;6.040;2023-08-06T04:26:28;100512.25;;;14.90;100.00
14089;BME280;7120;52.890;6.040;2023-08-06T04:28:54;100510.09;;;14.95;100.00
14089;BME280;7120;52.890;6.040;2023-08-06T04:31:19;100503.44;;;14.96;100.00
14089;BME280;7120;52.890;6.040;2023-08-06T04:33:44;100498.41;;;14.98;100.00
14089;BME280;7120;52.890;6.040;2023-08-06T04:36:11;100504.72;;;14.99;100.00
14089;BME280;7120;52.890;6.040;2023-08-06T04:38:37;100499.78;;;15.04;100.00
14089;BME280;7120;52.890;6.040;2023-08-06T04:41:02;100517.72;;;15.10;100.00
14089;BME280;7120;52.890;6.040;2023-08-06T04:43:28;100507.47;;;14.99;100.00
14089;BME280;7120;52.890;6.040;2023-08-06T04:45:54;100512.56;;;15.09;100.00
14089;BME280;7120;52.890;6.040;2023-08-06T04:48:21;100517.28;;;15.21;100.00
14089;BME280;7120;52.890;6.040;2023-08-06T04:50:47;100524.63;;;15.17;100.00
14089;BME280;7120;52.890;6.040;2023-08-06T04:53:13;100513.13;;;15.15;100.00
14089;BME280;7120;52.890;6.040;2023-08-06T04:55:39;100514.63;;;15.12;100.00
14089;BME280;7120;52.890;6.040;2023-08-06T04:58:04;100515.00;;;15.23;100.00
14089;BME280;7120;52.890;6.040;2023-08-06T05:00:30;100523.50;;;15.30;100.00
14089;BME280;7120;52.890;6.040;2023-08-06T05:02:55;100514.91;;;15.31;100.00
14089;BME280;7120;52.890;6.040;2023-08-06T05:05:20;100523.50;;;15.30;100.00
14089;BME280;7120;52.890;6.040;2023-08-06T05:07:49;100526.13;;;15.26;100.00
14089;BME280;7120;52.890;6.040;2023-08-06T05:10:15;100519.94;;;15.29;100.00
14089;BME280;7120;52.890;6.040;2023-08-06T05:12:40;100520.75;;;15.30;100.00
14089;BME280;7120;52.890;6.040;2023-08-06T05:15:06;100514.09;;;15.31;100.00
14089;BME280;7120;52.890;6.040;2023-08-06T05:17:32;100513.75;;;15.32;100.00
14089;BME280;7120;52.890;6.040;2023-08-06T05:19:57;100516.53;;;15.45;100.00
14089;BME280;7120;52.890;6.040;2023-08-06T05:22:22;100514.22;;;15.47;100.00
14089;BME280;7120;52.890;6.040;2023-08-06T05:24:48;100520.78;;;15.54;100.00
14089;BME280;7120;52.890;6.040;2023-08-06T05:27:13;100510.19;;;15.56;100.00
14089;BME280;7120;52.890;6.040;2023-08-06T05:29:39;100521.72;;;15.58;100.00
14089;BME280;7120;52.890;6.040;2023-08-06T05:32:04;100518.06;;;15.67;100.00
14089;BME280;7120;52.890;6.040;2023-08-06T05:34:29;100514.38;;;15.62;100.00
14089;BME280;7120;52.890;6.040;2023-08-06T05:36:55;100521.34;;;15.60;100.00
14089;BME280;7120;52.890;6.040;2023-08-06T05:39:20;100525.06;;;15.64;100.00
14089;BME280;7120;52.890;6.040;2023-08-06T05:41:46;100528.38;;;15.70;100.00
14089;BME280;7120;52.890;6.040;2023-08-06T05:44:11;100542.06;;;15.78;100.00
14089;BME280;7120;52.890;6.040;2023-08-06T05:46:37;100526.66;;;15.77;100.00
14089;BME280;7120;52.890;6.040;2023-08-06T05:49:02;100532.09;;;15.74;100.00
14089;BME280;7120;52.890;6.040;2023-08-06T05:51:28;100536.44;;;15.75;100.00
14089;BME280;7120;52.890;6.040;2023-08-06T05:53:53;100536.88;;;15.77;100.00
14089;BME280;7120;52.890;6.040;2023-08-06T05:56:19;100534.28;;;15.80;100.00
14089;BME280;7120;52.890;6.040;2023-08-06T05:58:44;100525.88;;;15.89;100.00
14089;BME280;7120;52.890;6.040;2023-08-06T06:01:11;100522.19;;;15.85;100.00
14089;BME280;7120;52.890;6.040;2023-08-06T06:03:37;100535.16;;;15.84;100.00
14089;BME280;7120;52.890;6.040;2023-08-06T06:06:02;100534.16;;;16.01;100.00
14089;BME280;7120;52.890;6.040;2023-08-06T06:08:27;100533.88;;;16.06;100.00
14089;BME280;7120;52.890;6.040;2023-08-06T06:10:53;100535.16;;;16.09;100.00
14089;BME280;7120;52.890;6.040;2023-08-06T06:13:18;100529.88;;;16.16;100.00
14089;BME280;7120;52.890;6.040;2023-08-06T06:15:43;100539.16;;;16.36;100.00
14089;BME280;7120;52.890;6.040;2023-08-06T06:18:09;100542.59;;;16.33;100.00
14089;BME280;7120;52.890;6.040;2023-08-06T06:20:34;100534.09;;;16.26;100.00
14089;BME280;7120;52.890;6.040;2023-08-06T06:22:59;100531.78;;;16.28;100.00
14089;BME280;7120;52.890;6.040;2023-08-06T06:25:25;100544.19;;;16.46;100.00
14089;BME280;7120;52.890;6.040;2023-08-06T06:27:50;100546.47;;;16.56;100.00
14089;BME280;7120;52.890;6.040;2023-08-06T06:30:17;100545.84;;;16.75;100.00
14089;BME280;7120;52.890;6.040;2023-08-06T06:32:42;100548.00;;;16.82;100.00
14089;BME280;7120;52.890;6.040;2023-08-06T06:35:08;100545.28;;;16.97;100.00
14089;BME280;7120;52.890;6.040;2023-08-06T06:37:34;100540.97;;;16.84;100.00
14089;BME280;7120;52.890;6.040;2023-08-06T06:39:59;100545.84;;;16.75;100.00
14089;BME280;7120;52.890;6.040;2023-08-06T06:42:25;100543.72;;;16.84;100.00
14089;BME280;7120;52.890;6.040;2023-08-06T06:44:50;100552.31;;;16.95;100.00
14089;BME280;7120;52.890;6.040;2023-08-06T06:47:15;100550.38;;;16.95;100.00
14089;BME280;7120;52.890;6.040;2023-08-06T06:49:41;100550.06;;;17.13;100.00
14089;BME280;7120;52.890;6.040;2023-08-06T06:52:06;100545.72;;;17.27;100.00
14089;BME280;7120;52.890;6.040;2023-08-06T06:54:32;100545.53;;;17.20;100.00
14089;BME280;7120;52.890;6.040;2023-08-06T06:56:57;100548.53;;;17.15;100.00
14089;BME280;7120;52.890;6.040;2023-08-06T06:59:22;100548.75;;;17.38;100.00
14089;BME280;7120;52.890;6.040;2023-08-06T07:01:48;100549.66;;;17.58;100.00
14089;BME280;7120;52.890;6.040;2023-08-06T07:04:13;100552.88;;;17.76;100.00
14089;BME280;7120;52.890;6.040;2023-08-06T07:06:39;100551.00;;;17.48;100.00
14089;BME280;7120;52.890;6.040;2023-08-06T07:09:04;100551.97;;;17.40;100.00
14089;BME280;7120;52.890;6.040;2023-08-06T07:11:29;100553.91;;;17.40;100.00
14089;BME280;7120;52.890;6.040;2023-08-06T07:13:58;100560.44;;;17.32;100.00
14089;BME280;7120;52.890;6.040;2023-08-06T07:16:24;100559.44;;;17.24;100.00
14089;BME280;7120;52.890;6.040;2023-08-06T07:18:54;100569.53;;;17.32;100.00
14089;BME280;7120;52.890;6.040;2023-08-06T07:21:20;100571.31;;;17.40;100.00
14089;BME280;7120;52.890;6.040;2023-08-06T07:23:45;100570.25;;;17.45;100.00
14089;BME280;7120;52.890;6.040;2023-08-06T07:26:11;100571.78;;;17.42;100.00
14089;BME280;7120;52.890;6.040;2023-08-06T07:28:36;100569.28;;;17.53;100.00
14089;BME280;7120;52.890;6.040;2023-08-06T07:31:03;100577.88;;;17.64;100.00
14089;BME280;7120;52.890;6.040;2023-08-06T07:33:28;100576.66;;;17.77;100.00
14089;BME280;7120;52.890;6.040;2023-08-06T07:35:54;100577.69;;;17.88;100.00
14089;BME280;7120;52.890;6.040;2023-08-06T07:38:19;100575.91;;;17.96;100.00
14089;BME280;7120;52.890;6.040;2023-08-06T07:40:45;100577.41;;;18.09;100.00
14089;BME280;7120;52.890;6.040;2023-08-06T07:43:10;100569.53;;;18.27;100.00
14089;BME280;7120;52.890;6.040;2023-08-06T07:45:36;100576.31;;;18.29;100.00
14089;BME280;7120;52.890;6.040;2023-08-06T07:48:02;100573.00;;;18.39;100.00
14089;BME280;7120;52.890;6.040;2023-08-06T07:50:27;100565.66;;;18.31;100.00
14089;BME280;7120;52.890;6.040;2023-08-06T07:52:53;100575.88;;;18.27;100.00
14089;BME280;7120;52.890;6.040;2023-08-06T07:55:18;100566.53;;;18.00;100.00
14089;BME280;7120;52.890;6.040;2023-08-06T07:57:43;100564.22;;;18.02;100.00
14089;BME280;7120;52.890;6.040;2023-08-06T08:00:09;100570.63;;;18.22;100.00
14089;BME280;7120;52.890;6.040;2023-08-06T08:02:35;100568.44;;;18.31;100.00
14089;BME280;7120;52.890;6.040;2023-08-06T08:05:00;100569.72;;;18.18;100.00
14089;BME280;7120;52.890;6.040;2023-08-06T08:07:26;100576.53;;;18.05;100.00
14089;BME280;7120;52.890;6.040;2023-08-06T08:09:53;100571.00;;;17.89;100.00
14089;BME280;7120;52.890;6.040;2023-08-06T08:12:19;100577.28;;;17.86;100.00
14089;BME280;7120;52.890;6.040;2023-08-06T08:14:45;100572.53;;;17.87;100.00
14089;BME280;7120;52.890;6.040;2023-08-06T08:17:11;100571.97;;;17.97;100.00
14089;BME280;7120;52.890;6.040;2023-08-06T08:19:37;100567.38;;;17.85;100.00
14089;BME280;7120;52.890;6.040;2023-08-06T08:22:02;100579.41;;;17.93;100.00
14089;BME280;7120;52.890;6.040;2023-08-06T08:24:28;100578.03;;;18.02;100.00
14089;BME280;7120;52.890;6.040;2023-08-06T08:26:56;100573.81;;;18.24;100.00
14089;BME280;7120;52.890;6.040;2023-08-06T08:29:22;100568.25;;;18.40;100.00
14089;BME280;7120;52.890;6.040;2023-08-06T08:31:48;100566.88;;;18.50;100.00
14089;BME280;7120;52.890;6.040;2023-08-06T08:34:17;100573.91;;;18.63;100.00
14089;BME280;7120;52.890;6.040;2023-08-06T08:36:43;100578.44;;;18.71;100.00
14089;BME280;7120;52.890;6.040;2023-08-06T08:39:09;100575.69;;;18.71;100.00
14089;BME280;7120;52.890;6.040;2023-08-06T08:41:36;100578.31;;;18.83;100.00
14089;BME280;7120;52.890;6.040;2023-08-06T08:44:02;100569.19;;;19.02;100.00
14089;BME280;7120;52.890;6.040;2023-08-06T08:46:30;100573.19;;;19.24;100.00
14089;BME280;7120;52.890;6.040;2023-08-06T08:48:59;100569.19;;;19.44;100.00
14089;BME280;7120;52.890;6.040;2023-08-06T08:51:27;100569.84;;;19.38;100.00
14089;BME280;7120;52.890;6.040;2023-08-06T08:53:53;100571.34;;;19.32;100.00
14089;BME280;7120;52.890;6.040;2023-08-06T08:56:21;100574.19;;;19.16;100.00
14089;BME280;7120;52.890;6.040;2023-08-06T08:58:47;100575.13;;;19.24;100.00
14089;BME280;7120;52.890;6.040;2023-08-06T09:01:15;100575.66;;;19.10;100.00
14089;BME280;7120;52.890;6.040;2023-08-06T09:03:41;100574.00;;;19.05;100.00
14089;BME280;7120;52.890;6.040;2023-08-06T09:06:07;100573.47;;;19.38;100.00
14089;BME280;7120;52.890;6.040;2023-08-06T09:08:41;100581.91;;;19.45;100.00
14089;BME280;7120;52.890;6.040;2023-08-06T09:11:09;100581.16;;;19.48;100.00
14089;BME280;7120;52.890;6.040;2023-08-06T09:13:37;100587.63;;;19.56;100.00
14089;BME280;7120;52.890;6.040;2023-08-06T09:16:02;100587.50;;;19.49;100.00
14089;BME280;7120;52.890;6.040;2023-08-06T09:18:29;100585.91;;;19.48;100.00
14089;BME280;7120;52.890;6.040;2023-08-06T09:20:56;100587.88;;;19.47;100.00
14089;BME280;7120;52.890;6.040;2023-08-06T09:23:28;100596.91;;;19.44;100.00
14089;BME280;7120;52.890;6.040;2023-08-06T09:25:55;100588.41;;;19.34;100.00
14089;BME280;7120;52.890;6.040;2023-08-06T09:28:20;100590.88;;;19.58;100.00
14089;BME280;7120;52.890;6.040;2023-08-06T09:30:47;100589.25;;;19.57;100.00
14089;BME280;7120;52.890;6.040;2023-08-06T09:33:17;100595.06;;;19.71;100.00
14089;BME280;7120;52.890;6.040;2023-08-06T09:35:45;100592.84;;;20.03;100.00
14089;BME280;7120;52.890;6.040;2023-08-06T09:38:10;100602.28;;;19.99;100.00
14089;BME280;7120;52.890;6.040;2023-08-06T09:40:37;100595.63;;;20.03;100.00
14089;BME280;7120;52.890;6.040;2023-08-06T09:43:03;100609.22;;;20.12;100.00
14089;BME280;7120;52.890;6.040;2023-08-06T09:45:31;100614.59;;;20.24;100.00
14089;BME280;7120;52.890;6.040;2023-08-06T09:48:02;100609.50;;;20.03;100.00
14089;BME280;7120;52.890;6.040;2023-08-06T09:50:30;100611.13;;;20.08;100.00
14089;BME280;7120;52.890;6.040;2023-08-06T09:52:57;100608.53;;;20.19;100.00
14089;BME280;7120;52.890;6.040;2023-08-06T09:55:23;100608.00;;;20.10;100.00
14089;BME280;7120;52.890;6.040;2023-08-06T09:57:50;100612.66;;;20.28;100.00
14089;BME280;7120;52.890;6.040;2023-08-06T10:00:16;100602.56;;;20.70;100.00
14089;BME280;7120;52.890;6.040;2023-08-06T10:02:42;100615.22;;;20.97;100.00
14089;BME280;7120;52.890;6.040;2023-08-06T10:05:09;100616.88;;;21.02;100.00
14089;BME280;7120;52.890;6.040;2023-08-06T10:07:35;100621.22;;;21.29;100.00
14089;BME280;7120;52.890;6.040;2023-08-06T10:10:01;100619.13;;;21.23;100.00
14089;BME280;7120;52.890;6.040;2023-08-06T10:12:29;100623.75;;;21.11;100.00
14089;BME280;7120;52.890;6.040;2023-08-06T10:14:59;100619.91;;;20.90;100.00
14089;BME280;7120;52.890;6.040;2023-08-06T10:17:26;100606.16;;;21.00;100.00
14089;BME280;7120;52.890;6.040;2023-08-06T10:19:52;100612.31;;;20.87;100.00
14089;BME280;7120;52.890;6.040;2023-08-06T10:22:20;100611.25;;;20.98;100.00
14089;BME280;7120;52.890;6.040;2023-08-06T10:29:48;100615.75;;;21.40;100.00
14089;BME280;7120;52.890;6.040;2023-08-06T10:32:15;100613.84;;;21.48;100.00
14089;BME280;7120;52.890;6.040;2023-08-06T10:37:20;100605.84;;;21.83;100.00
14089;BME280;7120;52.890;6.040;2023-08-06T10:39:52;100608.00;;;22.04;100.00
14089;BME280;7120;52.890;6.040;2023-08-06T10:42:26;100610.47;;;22.13;100.00
14089;BME280;7120;52.890;6.040;2023-08-06T10:45:24;100615.47;;;21.93;100.00
14089;BME280;7120;52.890;6.040;2023-08-06T10:47:54;100602.44;;;22.04;100.00
14089;BME280;7120;52.890;6.040;2023-08-06T10:50:20;100604.75;;;21.99;100.00
14089;BME280;7120;52.890;6.040;2023-08-06T10:52:46;100599.25;;;22.06;100.00
14089;BME280;7120;52.890;6.040;2023-08-06T10:55:13;100604.56;;;21.74;100.00
14089;BME280;7120;52.890;6.040;2023-08-06T10:57:40;100600.25;;;21.80;100.00
14089;BME280;7120;52.890;6.040;2023-08-06T11:00:07;100598.88;;;22.07;100.00
14089;BME280;7120;52.890;6.040;2023-08-06T11:02:36;100603.41;;;22.26;100.00
14089;BME280;7120;52.890;6.040;2023-08-06T11:05:08;100598.81;;;22.55;100.00
14089;BME280;7120;52.890;6.040;2023-08-06T11:07:35;100599.97;;;22.47;100.00
14089;BME280;7120;52.890;6.040;2023-08-06T11:10:09;100600.91;;;22.72;100.00
14089;BME280;7120;52.890;6.040;2023-08-06T11:12:35;100597.72;;;22.70;100.00
14089;BME280;7120;52.890;6.040;2023-08-06T11:15:01;100597.88;;;22.30;100.00
14089;BME280;7120;52.890;6.040;2023-08-06T11:17:29;100598.59;;;22.19;100.00
14089;BME280;7120;52.890;6.040;2023-08-06T11:19:54;100598.28;;;22.32;100.00
14089;BME280;7120;52.890;6.040;2023-08-06T11:22:23;100594.59;;;22.13;100.00
14089;BME280;7120;52.890;6.040;2023-08-06T11:24:48;100582.84;;;22.45;100.00
14089;BME280;7120;52.890;6.040;2023-08-06T11:27:15;100583.25;;;22.47;100.00
14089;BME280;7120;52.890;6.040;2023-08-06T11:29:42;100582.00;;;22.41;100.00
14089;BME280;7120;52.890;6.040;2023-08-06T11:32:08;100584.59;;;22.74;100.00
14089;BME280;7120;52.890;6.040;2023-08-06T11:34:35;100588.38;;;23.14;100.00
14089;BME280;7120;52.890;6.040;2023-08-06T11:37:00;100590.00;;;23.29;100.00
14089;BME280;7120;52.890;6.040;2023-08-06T11:39:27;100585.16;;;23.05;100.00
14089;BME280;7120;52.890;6.040;2023-08-06T11:41:53;100588.94;;;22.68;100.00
14089;BME280;7120;52.890;6.040;2023-08-06T11:44:19;100593.91;;;22.31;100.00
14089;BME280;7120;52.890;6.040;2023-08-06T11:49:17;100590.88;;;20.87;100.00
14089;BME280;7120;52.890;6.040;2023-08-06T11:51:47;100595.53;;;20.49;100.00
14089;BME280;7120;52.890;6.040;2023-08-06T11:54:12;100596.25;;;20.20;100.00
14089;BME280;7120;52.890;6.040;2023-08-06T11:56:38;100593.78;;;20.15;100.00
14089;BME280;7120;52.890;6.040;2023-08-06T11:59:03;100586.88;;;20.01;100.00
14089;BME280;7120;52.890;6.040;2023-08-06T12:01:29;100585.31;;;20.04;100.00
14089;BME280;7120;52.890;6.040;2023-08-06T12:03:59;100594.16;;;20.13;100.00
14089;BME280;7120;52.890;6.040;2023-08-06T12:06:27;100588.88;;;20.05;100.00
14089;BME280;7120;52.890;6.040;2023-08-06T12:08:52;100590.31;;;19.95;100.00
14089;BME280;7120;52.890;6.040;2023-08-06T12:11:21;100594.81;;;19.80;100.00
14089;BME280;7120;52.890;6.040;2023-08-06T12:13:50;100598.84;;;19.83;100.00
14089;BME280;7120;52.890;6.040;2023-08-06T12:16:17;100591.31;;;19.83;100.00
14089;BME280;7120;52.890;6.040;2023-08-06T12:18:44;100598.63;;;19.72;100.00
14089;BME280;7120;52.890;6.040;2023-08-06T12:21:10;100593.59;;;19.78;100.00
14089;BME280;7120;52.890;6.040;2023-08-06T12:23:35;100593.91;;;19.95;100.00
14089;BME280;7120;52.890;6.040;2023-08-06T12:26:01;100604.59;;;20.20;100.00
14089;BME280;7120;52.890;6.040;2023-08-06T12:28:27;100602.34;;;20.29;100.00
14089;BME280;7120;52.890;6.040;2023-08-06T12:30:52;100599.94;;;20.27;100.00
14089;BME280;7120;52.890;6.040;2023-08-06T12:33:20;100612.84;;;20.43;100.00
14089;BME280;7120;52.890;6.040;2023-08-06T12:35:45;100601.53;;;20.28;100.00
14089;BME280;7120;52.890;6.040;2023-08-06T12:38:11;100612.88;;;20.69;100.00
14089;BME280;7120;52.890;6.040;2023-08-06T12:40:36;100601.16;;;20.53;100.00
14089;BME280;7120;52.890;6.040;2023-08-06T12:43:01;100609.38;;;20.46;100.00
14089;BME280;7120;52.890;6.040;2023-08-06T12:45:27;100606.19;;;20.21;100.00
14089;BME280;7120;52.890;6.040;2023-08-06T12:47:52;100601.88;;;20.00;100.00
14089;BME280;7120;52.890;6.040;2023-08-06T12:50:18;100613.00;;;20.00;100.00
14089;BME280;7120;52.890;6.040;2023-08-06T12:52:43;100603.88;;;20.00;100.00
14089;BME280;7120;52.890;6.040;2023-08-06T12:55:08;100605.22;;;20.10;100.00
14089;BME280;7120;52.890;6.040;2023-08-06T12:57:34;100604.44;;;20.09;100.00